createdAt,value
2019-02-03T00:00:31.287Z,30.43
2019-02-03T00:02:58.015Z,31.43
2019-02-03T00:05:24.753Z,33.80
2019-02-03T00:07:50.781Z,30.97
2019-02-03T00:10:16.746Z,34.00
2019-02-03T00:12:42.758Z,32.70
2019-02-03T00:15:08.803Z,35.70
2019-02-03T00:17:34.817Z,33.70
2019-02-03T00:20:01.256Z,30.73
2019-02-03T00:22:27.221Z,32.87
2019-02-03T00:24:53.261Z,33.60
2019-02-03T00:27:19.250Z,30.93
2019-02-03T00:29:45.237Z,32.30
2019-02-03T00:32:11.230Z,28.40
2019-02-03T00:34:37.243Z,32.53
2019-02-03T00:37:14.778Z,32.47
2019-02-03T00:39:29.360Z,31.73
2019-02-03T00:41:55.305Z,32.93
2019-02-03T00:44:21.301Z,29.53
2019-02-03T00:46:47.290Z,30.03
2019-02-03T00:49:20.193Z,30.50
2019-02-03T00:51:46.951Z,29.83
2019-02-03T00:54:13.044Z,27.85
2019-02-03T00:56:38.997Z,33.45
2019-02-03T00:59:05.744Z,32.20
2019-02-03T01:01:32.477Z,33.47
2019-02-03T01:03:58.488Z,29.60
2019-02-03T01:06:24.576Z,30.58
2019-02-03T01:08:50.576Z,35.10
2019-02-03T01:11:16.615Z,27.90
2019-02-03T01:13:42.614Z,31.27
2019-02-03T01:16:08.631Z,30.07
2019-02-03T01:18:34.643Z,30.45
2019-02-03T01:21:02.566Z,31.87
2019-02-03T01:23:28.571Z,30.10
2019-02-03T01:25:54.578Z,29.87
2019-02-03T01:28:20.606Z,32.70
2019-02-03T01:30:46.617Z,29.30
2019-02-03T01:33:12.641Z,28.40
2019-02-03T01:35:38.618Z,25.23
2019-02-03T01:38:04.617Z,28.40
2019-02-03T01:40:30.602Z,31.33
2019-02-03T01:42:57.366Z,27.33
2019-02-03T01:45:23.370Z,29.30
2019-02-03T01:47:49.381Z,30.83
2019-02-03T01:50:16.127Z,26.65
2019-02-03T01:52:42.156Z,34.15
2019-02-03T01:55:08.974Z,32.42
2019-02-03T01:57:35.705Z,28.90
2019-02-03T02:00:01.757Z,29.25
2019-02-03T02:02:27.752Z,30.80
2019-02-03T02:04:54.517Z,31.25
2019-02-03T02:07:20.625Z,28.87
2019-02-03T02:09:46.500Z,31.50
2019-02-03T02:12:12.481Z,29.43
2019-02-03T02:14:38.494Z,29.60
2019-02-03T02:17:05.218Z,32.00
2019-02-03T02:19:31.990Z,31.62
2019-02-03T02:21:58.953Z,29.30
2019-02-03T02:24:24.948Z,31.52
2019-02-03T02:26:50.931Z,34.20
2019-02-03T02:29:17.033Z,28.53
2019-02-03T02:31:43.013Z,32.33
2019-02-03T02:34:10.109Z,31.27
2019-02-03T02:36:36.114Z,35.05
2019-02-03T02:39:02.238Z,33.00
2019-02-03T02:41:28.272Z,32.17
2019-02-03T02:43:54.280Z,30.10
2019-02-03T02:46:20.293Z,30.23
2019-02-03T02:48:46.375Z,31.20
2019-02-03T02:51:12.393Z,31.95
2019-02-03T02:53:38.394Z,34.75
2019-02-03T02:56:04.426Z,34.92
2019-02-03T02:58:30.408Z,32.40
2019-02-03T03:00:56.398Z,33.87
2019-02-03T03:03:22.395Z,35.60
2019-02-03T03:05:48.410Z,41.13
2019-02-03T03:08:19.048Z,37.58
2019-02-03T03:10:42.163Z,40.27
2019-02-03T03:13:08.186Z,41.22
2019-02-03T03:15:34.164Z,39.25
2019-02-03T03:18:00.127Z,34.20
2019-02-03T03:20:26.309Z,37.30
2019-02-03T03:22:52.142Z,39.42
2019-02-03T03:25:18.882Z,37.83
2019-02-03T03:27:45.657Z,39.50
2019-02-03T03:30:14.588Z,42.15
2019-02-03T03:32:40.597Z,38.85
2019-02-03T03:35:06.718Z,40.70
2019-02-03T03:37:32.710Z,41.80
2019-02-03T03:39:58.789Z,40.77
2019-02-03T03:42:24.776Z,41.00
2019-02-03T03:44:50.781Z,37.80
2019-02-03T03:47:16.792Z,40.90
2019-02-03T03:49:42.793Z,38.42
2019-02-03T03:52:09.580Z,38.78
2019-02-03T03:54:35.575Z,36.10
2019-02-03T03:57:01.560Z,34.87
2019-02-03T03:59:27.596Z,33.60
2019-02-03T04:01:53.702Z,35.78
2019-02-03T04:04:19.702Z,36.13
2019-02-03T04:06:45.673Z,36.53
2019-02-03T04:09:11.648Z,34.77
2019-02-03T04:11:38.498Z,32.90
2019-02-03T04:14:04.493Z,37.38
2019-02-03T04:16:30.505Z,40.33
2019-02-03T04:18:56.508Z,37.95
2019-02-03T04:21:22.513Z,36.40
2019-02-03T04:23:48.532Z,35.37
2019-02-03T04:26:15.321Z,27.70
2019-02-03T04:28:41.304Z,32.08
2019-02-03T04:31:08.086Z,32.47
2019-02-03T04:33:34.078Z,34.88
2019-02-03T04:36:00.128Z,32.20
2019-02-03T04:38:26.124Z,35.70
2019-02-03T04:40:52.193Z,33.28
2019-02-03T04:43:18.201Z,34.05
2019-02-03T04:45:44.196Z,30.20
2019-02-03T04:48:10.222Z,35.83
2019-02-03T04:50:36.207Z,32.10
2019-02-03T04:53:02.960Z,34.70
2019-02-03T04:55:29.048Z,33.30
2019-02-03T04:57:55.032Z,34.00
2019-02-03T05:00:21.966Z,32.57
2019-02-03T05:02:48.852Z,35.42
2019-02-03T05:05:14.861Z,30.80
2019-02-03T05:07:40.868Z,32.72
2019-02-03T05:10:06.852Z,34.90
2019-02-03T05:12:32.963Z,34.63
2019-02-03T05:14:58.979Z,28.85
2019-02-03T05:17:24.976Z,31.00
2019-02-03T05:19:51.130Z,33.40
2019-02-03T05:22:17.113Z,30.58
2019-02-03T05:24:43.120Z,30.80
2019-02-03T05:27:09.101Z,29.40
2019-02-03T05:29:35.105Z,30.90
2019-02-03T05:32:01.120Z,31.77
2019-02-03T05:34:27.120Z,32.90
2019-02-03T05:36:53.094Z,31.50
2019-02-03T05:39:25.019Z,32.00
2019-02-03T05:41:45.102Z,32.47
2019-02-03T05:44:11.076Z,31.33
2019-02-03T05:46:37.053Z,29.70
2019-02-03T05:50:00.723Z,37.08
2019-02-03T05:52:28.959Z,29.42
2019-02-03T05:54:55.774Z,32.95
2019-02-03T05:57:21.867Z,31.12
2019-02-03T05:59:47.897Z,26.73
2019-02-03T06:02:13.935Z,28.30
2019-02-03T06:04:40.004Z,27.35
2019-02-03T06:07:06.770Z,29.80
2019-02-03T06:09:36.835Z,29.85
2019-02-03T06:11:58.826Z,27.83
2019-02-03T06:14:24.837Z,29.25
2019-02-03T06:16:50.867Z,26.60
2019-02-03T06:19:16.931Z,29.17
2019-02-03T06:21:42.968Z,27.50
2019-02-03T06:24:09.019Z,29.73
2019-02-03T06:26:35.800Z,28.12
2019-02-03T06:29:01.852Z,28.48
2019-02-03T06:31:28.666Z,26.85
2019-02-03T06:33:54.715Z,28.55
2019-02-03T06:36:20.755Z,30.55
2019-02-03T06:38:46.787Z,27.10
2019-02-03T06:41:12.823Z,31.52
2019-02-03T06:43:38.844Z,27.83
2019-02-03T06:46:05.722Z,29.25
2019-02-03T06:48:31.758Z,28.52
2019-02-03T06:50:57.811Z,28.33
2019-02-03T06:53:24.530Z,27.15
2019-02-03T06:55:50.549Z,27.58
2019-02-03T06:58:16.604Z,27.67
2019-02-03T07:00:42.613Z,29.12
2019-02-03T07:03:08.630Z,24.90
2019-02-03T07:05:34.641Z,29.35
2019-02-03T07:08:00.826Z,27.98
2019-02-03T07:10:27.605Z,27.13
2019-02-03T07:12:53.636Z,24.98
2019-02-03T07:15:19.662Z,27.98
2019-02-03T07:17:45.702Z,25.80
2019-02-03T07:20:15.685Z,26.08
2019-02-03T07:22:41.718Z,25.88
2019-02-03T07:25:07.793Z,28.30
2019-02-03T07:27:33.810Z,26.83
2019-02-03T07:29:59.826Z,27.35
2019-02-03T07:32:25.856Z,26.90
2019-02-03T07:34:51.894Z,29.50
2019-02-03T07:37:17.917Z,25.05
2019-02-03T07:39:44.730Z,28.05
2019-02-03T07:42:10.867Z,26.60
2019-02-03T07:44:36.928Z,26.15
2019-02-03T07:47:02.926Z,25.70
2019-02-03T07:49:28.958Z,24.45
2019-02-03T07:51:56.369Z,24.75
2019-02-03T07:54:22.743Z,24.83
2019-02-03T07:56:48.871Z,23.83
2019-02-03T07:59:14.831Z,26.35
2019-02-03T08:01:40.858Z,24.85
2019-02-03T08:04:06.893Z,26.25
2019-02-03T08:06:32.922Z,23.87
2019-02-03T08:08:58.976Z,26.05
2019-02-03T08:11:32.012Z,24.67
2019-02-03T08:13:58.037Z,24.02
2019-02-03T08:16:24.118Z,26.87
2019-02-03T08:18:50.150Z,33.17
2019-02-03T08:21:16.173Z,26.25
2019-02-03T08:23:42.217Z,30.92
2019-02-03T08:26:08.275Z,24.63
2019-02-03T08:28:34.319Z,27.00
2019-02-03T08:31:00.354Z,27.83
2019-02-03T08:33:26.377Z,31.40
2019-02-03T08:35:52.409Z,30.65
2019-02-03T08:38:18.438Z,30.50
2019-02-03T08:40:45.215Z,29.50
2019-02-03T08:43:11.290Z,29.65
2019-02-03T08:45:37.317Z,26.13
2019-02-03T08:48:03.374Z,25.83
2019-02-03T08:50:30.141Z,26.70
2019-02-03T08:52:56.193Z,28.15
2019-02-03T08:55:23.174Z,28.02
2019-02-03T08:57:49.189Z,28.13
2019-02-03T09:00:18.093Z,26.73
2019-02-03T09:02:44.852Z,28.60
2019-02-03T09:05:10.883Z,26.63
2019-02-03T09:07:37.046Z,28.53
2019-02-03T09:10:02.966Z,25.27
2019-02-03T09:12:29.017Z,25.60
2019-02-03T09:14:55.031Z,27.30
2019-02-03T09:17:21.058Z,27.53
2019-02-03T09:19:54.268Z,25.57
2019-02-03T09:22:21.054Z,25.70
2019-02-03T09:24:53.051Z,24.50
2019-02-03T09:27:19.085Z,24.17
2019-02-03T09:29:45.123Z,24.03
2019-02-03T09:32:11.942Z,23.00
2019-02-03T09:34:37.974Z,22.53
2019-02-03T09:37:03.999Z,23.27
2019-02-03T09:39:30.033Z,23.97
2019-02-03T09:41:56.037Z,21.93
2019-02-03T09:44:22.045Z,24.37
2019-02-03T09:46:48.078Z,22.33
2019-02-03T09:49:14.118Z,23.47
2019-02-03T09:51:40.167Z,22.60
2019-02-03T09:54:07.188Z,24.87
2019-02-03T09:56:35.162Z,24.83
2019-02-03T09:59:01.282Z,23.80
2019-02-03T10:01:27.314Z,23.00
2019-02-03T10:03:53.366Z,22.33
2019-02-03T10:06:19.414Z,26.00
2019-02-03T10:08:45.434Z,23.53
2019-02-03T10:11:12.404Z,24.80
2019-02-03T10:13:37.528Z,23.50
2019-02-03T10:16:03.582Z,20.60
2019-02-03T10:18:29.606Z,22.13
2019-02-03T10:20:55.658Z,23.50
2019-02-03T10:23:22.594Z,24.80
2019-02-03T10:25:48.635Z,23.87
2019-02-03T10:28:14.685Z,26.40
2019-02-03T10:30:40.721Z,24.10
2019-02-03T10:33:06.757Z,22.83
2019-02-03T10:35:32.773Z,25.07
2019-02-03T10:37:58.850Z,22.80
2019-02-03T10:40:24.878Z,24.33
2019-02-03T10:42:50.912Z,22.63
2019-02-03T10:45:16.950Z,22.10
2019-02-03T10:47:42.991Z,20.23
2019-02-03T10:50:09.924Z,21.67
2019-02-03T10:52:36.008Z,22.97
2019-02-03T10:55:04.332Z,23.17
2019-02-03T10:57:28.936Z,23.27
2019-02-03T10:59:54.964Z,23.30
2019-02-03T11:02:21.069Z,23.73
2019-02-03T11:04:47.090Z,23.90
2019-02-03T11:07:13.213Z,22.87
2019-02-03T11:09:39.305Z,21.37
2019-02-03T11:12:05.323Z,21.53
2019-02-03T11:14:31.374Z,21.63
2019-02-03T11:16:58.208Z,22.63
2019-02-03T11:19:24.278Z,21.97
2019-02-03T11:21:51.097Z,22.50
2019-02-03T11:24:17.137Z,21.83
2019-02-03T11:26:43.175Z,22.70
2019-02-03T11:29:09.239Z,19.93
2019-02-03T11:31:35.269Z,21.63
2019-02-03T11:34:01.314Z,20.87
2019-02-03T11:36:27.371Z,21.33
2019-02-03T11:38:53.445Z,20.17
2019-02-03T11:41:19.498Z,21.20
2019-02-03T11:43:45.558Z,19.50
2019-02-03T11:46:12.342Z,20.67
2019-02-03T11:48:38.392Z,18.43
2019-02-03T11:51:04.420Z,17.70
2019-02-03T11:53:30.495Z,20.03
2019-02-03T11:55:56.601Z,19.67
2019-02-03T11:58:23.634Z,19.40
2019-02-03T12:00:50.468Z,19.00
2019-02-03T12:03:16.491Z,18.50
2019-02-03T12:05:42.526Z,21.33
2019-02-03T12:08:08.586Z,19.70
2019-02-03T12:10:34.664Z,17.67
2019-02-03T12:13:00.767Z,22.00
2019-02-03T12:15:26.812Z,19.30
2019-02-03T12:17:52.829Z,21.77
2019-02-03T12:20:18.962Z,20.33
2019-02-03T12:22:44.978Z,22.37
2019-02-03T12:25:12.010Z,23.10
2019-02-03T12:27:38.042Z,20.57
2019-02-03T12:30:07.080Z,18.10
2019-02-03T12:32:33.111Z,20.57
2019-02-03T12:34:59.874Z,22.10
2019-02-03T12:37:25.898Z,20.87
2019-02-03T12:39:51.929Z,21.87
2019-02-03T12:42:18.003Z,22.33
2019-02-03T12:44:44.779Z,21.73
2019-02-03T12:47:10.817Z,20.87
2019-02-03T12:49:36.855Z,21.40
2019-02-03T12:52:02.908Z,20.03
2019-02-03T12:54:28.935Z,19.73
2019-02-03T12:56:56.807Z,19.43
2019-02-03T12:59:22.766Z,19.30
2019-02-03T13:01:48.836Z,19.27
2019-02-03T13:04:14.873Z,20.47
2019-02-03T13:06:40.976Z,20.30
2019-02-03T13:09:07.873Z,17.23
2019-02-03T13:11:33.056Z,17.10
2019-02-03T13:13:59.122Z,17.77
2019-02-03T13:16:25.151Z,17.00
2019-02-03T13:18:51.183Z,18.13
2019-02-03T13:21:17.236Z,18.67
2019-02-03T13:23:45.064Z,20.93
2019-02-03T13:26:09.294Z,18.10
2019-02-03T13:28:35.512Z,19.60
2019-02-03T13:31:01.294Z,19.60
2019-02-03T13:33:27.293Z,19.70
2019-02-03T13:35:53.312Z,19.97
2019-02-03T13:38:19.331Z,20.30
2019-02-03T13:40:45.338Z,20.60
2019-02-03T13:43:11.358Z,19.90
2019-02-03T13:45:37.394Z,19.60
2019-02-03T13:48:03.410Z,18.80
2019-02-03T13:50:29.458Z,19.07
2019-02-03T13:52:55.470Z,16.47
2019-02-03T13:55:21.469Z,15.77
2019-02-03T13:57:47.501Z,18.03
2019-02-03T14:00:15.514Z,14.90
2019-02-03T14:02:41.537Z,15.40
2019-02-03T14:05:07.567Z,14.97
2019-02-03T14:07:33.584Z,16.43
2019-02-03T14:09:59.595Z,13.87
2019-02-03T14:12:25.613Z,13.83
2019-02-03T14:14:51.666Z,14.87
2019-02-03T14:17:17.710Z,16.03
2019-02-03T14:19:43.738Z,17.70
2019-02-03T14:22:09.744Z,13.77
2019-02-03T14:24:35.810Z,17.67
2019-02-03T14:27:01.835Z,17.27
2019-02-03T14:29:27.871Z,15.47
2019-02-03T14:31:53.896Z,12.13
2019-02-03T14:34:19.905Z,14.90
2019-02-03T14:36:45.939Z,15.50
2019-02-03T14:39:11.966Z,12.80
2019-02-03T14:41:37.970Z,11.30
2019-02-03T14:44:03.988Z,11.03
2019-02-03T14:46:30.009Z,11.00
2019-02-03T14:48:56.043Z,12.47
2019-02-03T14:51:22.062Z,11.00
2019-02-03T14:53:48.082Z,9.50
2019-02-03T14:56:14.098Z,12.47
2019-02-03T14:58:40.146Z,11.73
2019-02-03T15:01:07.330Z,9.23
2019-02-03T15:03:33.416Z,11.43
2019-02-03T15:05:59.359Z,9.10
2019-02-03T15:08:25.399Z,10.67
2019-02-03T15:10:51.405Z,13.50
2019-02-03T15:13:17.430Z,12.20
2019-02-03T15:15:43.441Z,8.03
2019-02-03T15:18:09.458Z,12.13
2019-02-03T15:20:35.487Z,8.20
2019-02-03T15:23:01.506Z,10.90
2019-02-03T15:25:27.522Z,7.87
2019-02-03T15:27:53.579Z,10.17
2019-02-03T15:30:21.506Z,8.80
2019-02-03T15:32:47.534Z,7.10
2019-02-03T15:35:13.582Z,7.10
2019-02-03T15:37:40.813Z,7.00
2019-02-03T15:40:07.916Z,7.30
2019-02-03T15:42:34.089Z,7.30
2019-02-03T15:45:00.334Z,8.43
2019-02-03T15:47:26.175Z,8.67
2019-02-03T15:49:52.239Z,8.40
2019-02-03T15:52:18.273Z,8.60
2019-02-03T15:54:44.334Z,9.00
2019-02-03T15:57:10.366Z,7.90
2019-02-03T15:59:36.390Z,8.87
2019-02-03T16:02:11.644Z,7.90
2019-02-03T16:04:38.574Z,7.95
2019-02-03T16:07:04.734Z,8.50
2019-02-03T16:09:33.588Z,8.10
2019-02-03T16:11:56.814Z,8.60
2019-02-03T16:14:22.995Z,7.43
2019-02-03T16:16:49.006Z,7.73
2019-02-03T16:19:15.013Z,7.07
2019-02-03T16:21:41.018Z,7.50
2019-02-03T16:24:07.042Z,7.60
2019-02-03T16:26:33.063Z,9.93
2019-02-03T16:28:59.117Z,6.43
2019-02-03T16:31:25.134Z,6.80
2019-02-03T16:33:51.507Z,6.40
2019-02-03T16:36:17.574Z,6.93
2019-02-03T16:38:43.638Z,5.80
2019-02-03T16:41:09.763Z,6.40
2019-02-03T16:43:48.379Z,6.30
2019-02-03T16:46:02.809Z,5.60
2019-02-03T16:48:29.028Z,5.37
2019-02-03T16:50:55.179Z,5.07
2019-02-03T16:53:21.154Z,5.60
2019-02-03T16:55:49.482Z,6.40
2019-02-03T16:58:15.547Z,6.00
2019-02-03T17:00:41.818Z,6.40
2019-02-03T17:03:08.542Z,3.63
2019-02-03T17:05:34.479Z,4.30
2019-02-03T17:08:00.732Z,5.93
2019-02-03T17:10:26.902Z,16.90
2019-02-03T17:12:52.901Z,18.90
2019-02-03T17:15:23.759Z,33.67
2019-02-03T17:17:49.765Z,7.30
2019-02-03T17:20:15.794Z,5.57
2019-02-03T17:22:41.982Z,6.60
2019-02-03T17:25:08.821Z,9.33
2019-02-03T17:27:34.840Z,11.07
2019-02-03T17:30:00.872Z,12.63
2019-02-03T17:32:26.890Z,8.10
2019-02-03T17:35:00.333Z,10.27
2019-02-03T17:37:26.149Z,9.10
2019-02-03T17:39:52.387Z,9.83
2019-02-03T17:42:19.425Z,5.00
2019-02-03T17:44:46.206Z,6.60
2019-02-03T17:47:12.230Z,6.67
2019-02-03T17:49:38.418Z,5.13
2019-02-03T17:52:06.649Z,5.60
2019-02-03T17:54:30.762Z,5.40
2019-02-03T17:56:56.778Z,4.40
2019-02-03T17:59:22.793Z,4.40
2019-02-03T18:01:48.826Z,3.80
2019-02-03T18:04:15.909Z,4.10
2019-02-03T18:06:42.019Z,4.10
2019-02-03T18:09:08.029Z,3.53
2019-02-03T18:11:34.063Z,3.07
2019-02-03T18:14:00.068Z,3.60
2019-02-03T18:16:26.105Z,3.30
2019-02-03T18:18:52.123Z,3.23
2019-02-03T18:21:18.134Z,3.17
2019-02-03T18:23:44.157Z,3.20
2019-02-03T18:26:10.199Z,3.00
2019-02-03T18:28:36.266Z,3.23
2019-02-03T18:31:03.018Z,3.00
2019-02-03T18:33:29.058Z,4.10
2019-02-03T18:35:55.071Z,4.23
2019-02-03T18:38:21.101Z,3.40
2019-02-03T18:40:47.138Z,3.53
2019-02-03T18:43:16.138Z,4.57
2019-02-03T18:45:42.146Z,4.30
2019-02-03T18:48:08.169Z,3.80
2019-02-03T18:50:34.182Z,4.37
2019-02-03T18:53:00.187Z,4.53
2019-02-03T18:55:30.046Z,4.33
2019-02-03T18:57:56.158Z,4.70
2019-02-03T19:00:25.237Z,4.20
2019-02-03T19:02:51.266Z,4.80
2019-02-03T19:05:18.167Z,4.50
2019-02-03T19:07:44.206Z,4.37
2019-02-03T19:10:17.276Z,6.30
2019-02-03T19:12:43.287Z,5.57
2019-02-03T19:15:10.499Z,4.93
2019-02-03T19:17:36.533Z,4.53
2019-02-03T19:20:02.579Z,5.43
2019-02-03T19:22:28.594Z,5.00
2019-02-03T19:24:54.630Z,5.07
2019-02-03T19:27:20.743Z,4.63
2019-02-03T19:29:47.347Z,5.80
2019-02-03T19:32:13.578Z,6.60
2019-02-03T19:34:39.792Z,6.23
2019-02-03T19:37:05.956Z,5.80
2019-02-03T19:39:31.838Z,5.73
2019-02-03T19:41:57.858Z,5.80
2019-02-03T19:44:23.890Z,4.97
2019-02-03T19:46:50.091Z,6.13
2019-02-03T19:49:16.604Z,6.10
2019-02-03T19:52:11.718Z,4.73
2019-02-03T19:54:37.850Z,5.70
2019-02-03T19:57:03.950Z,6.23
2019-02-03T19:59:29.974Z,5.70
2019-02-03T20:01:56.004Z,6.20
2019-02-03T20:04:22.381Z,6.90
2019-02-03T20:06:49.275Z,6.40
2019-02-03T20:09:15.294Z,6.47
2019-02-03T20:11:41.449Z,6.87
2019-02-03T20:14:08.198Z,6.70
2019-02-03T20:16:35.108Z,7.83
2019-02-03T20:19:01.130Z,6.50
2019-02-03T20:21:27.244Z,7.07
2019-02-03T20:23:53.448Z,6.80
2019-02-03T20:26:19.453Z,7.40
2019-02-03T20:28:45.471Z,6.63
2019-02-03T20:31:11.506Z,7.20
2019-02-03T20:33:37.536Z,6.43
2019-02-03T20:36:06.247Z,5.70
2019-02-03T20:38:29.551Z,8.43
2019-02-03T20:40:55.673Z,6.30
2019-02-03T20:43:21.894Z,6.83
2019-02-03T20:45:49.894Z,6.10
2019-02-03T20:48:16.802Z,7.73
2019-02-03T20:50:42.834Z,6.20
2019-02-03T20:53:08.857Z,6.73
2019-02-03T20:55:35.068Z,8.03
2019-02-03T20:58:01.131Z,9.60
2019-02-03T21:00:29.026Z,7.90
2019-02-03T21:02:55.050Z,7.80
2019-02-03T21:05:21.073Z,8.60
2019-02-03T21:07:48.241Z,6.10
2019-02-03T21:10:15.110Z,7.40
2019-02-03T21:12:41.135Z,8.17
2019-02-03T21:15:08.995Z,8.13
2019-02-03T21:17:35.004Z,7.30
2019-02-03T21:20:01.018Z,8.40
2019-02-03T21:22:27.050Z,8.63
2019-02-03T21:24:53.061Z,8.80
2019-02-03T21:27:19.088Z,8.13
2019-02-03T21:29:45.132Z,7.10
2019-02-03T21:32:11.171Z,6.50
2019-02-03T21:34:37.219Z,6.30
2019-02-03T21:37:03.984Z,7.13
2019-02-03T21:39:30.740Z,7.33
2019-02-03T21:41:56.895Z,7.40
2019-02-03T21:44:22.798Z,8.13
2019-02-03T21:46:48.813Z,7.10
2019-02-03T21:49:14.839Z,8.40
2019-02-03T21:51:40.862Z,6.60
2019-02-03T21:54:06.887Z,6.80
2019-02-03T21:56:32.928Z,6.13
2019-02-03T21:58:58.942Z,5.80
2019-02-03T22:01:24.971Z,7.00
2019-02-03T22:03:51.001Z,7.17
2019-02-03T22:06:17.061Z,6.53
2019-02-03T22:08:43.498Z,6.87
2019-02-03T22:11:09.509Z,6.97
2019-02-03T22:13:35.532Z,5.85
2019-02-03T22:16:01.543Z,7.33
2019-02-03T22:18:27.591Z,7.73
2019-02-03T22:20:53.621Z,6.70
2019-02-03T22:23:20.414Z,6.37
2019-02-03T22:25:46.454Z,7.30
2019-02-03T22:28:12.489Z,6.93
2019-02-03T22:30:38.520Z,5.77
2019-02-03T22:33:04.565Z,7.47
2019-02-03T22:35:31.318Z,6.33
2019-02-03T22:37:58.103Z,6.30
2019-02-03T22:40:24.138Z,6.10
2019-02-03T22:42:50.178Z,5.72
2019-02-03T22:45:17.806Z,5.40
2019-02-03T22:47:43.823Z,5.80
2019-02-03T22:50:10.734Z,5.63
2019-02-03T22:52:37.532Z,5.65
2019-02-03T22:55:03.543Z,6.05
2019-02-03T22:57:29.571Z,5.57
2019-02-03T22:59:55.597Z,5.90
2019-02-03T23:02:21.642Z,6.15
2019-02-03T23:04:47.670Z,6.03
2019-02-03T23:07:13.711Z,5.35
2019-02-03T23:09:41.061Z,6.80
2019-02-03T23:12:07.084Z,6.30
2019-02-03T23:14:33.101Z,5.72
2019-02-03T23:16:59.128Z,6.68
2019-02-03T23:19:25.146Z,6.70
2019-02-03T23:21:51.190Z,7.25
2019-02-03T23:24:17.203Z,6.57
2019-02-03T23:26:43.223Z,6.20
2019-02-03T23:29:09.229Z,5.95
2019-02-03T23:31:35.260Z,5.87
2019-02-03T23:34:01.310Z,7.12
2019-02-03T23:36:27.358Z,5.62
2019-02-03T23:38:53.389Z,7.00
2019-02-03T23:41:19.405Z,6.70
2019-02-03T23:43:54.447Z,7.20
2019-02-03T23:46:29.436Z,6.65
2019-02-03T23:48:46.523Z,6.90
2019-02-03T23:51:12.539Z,6.47
2019-02-03T23:53:38.562Z,5.78
2019-02-03T23:56:04.590Z,5.03
2019-02-03T23:58:30.612Z,5.20
